sensor_id;sensor_type;location;lat;lon;timestamp;temperature;humidity
69006;SHT31;56061;51.748;19.620;2022-08-19T00:01:58;19.67;77.69
69006;SHT31;56061;51.748;19.620;2022-08-19T00:04:27;19.61;77.97
69006;SHT31;56061;51.748;19.620;2022-08-19T00:06:57;19.59;78.21
69006;SHT31;56061;51.748;19.620;2022-08-19T00:09:25;19.56;78.27
69006;SHT31;56061;51.748;19.620;2022-08-19T00:11:53;19.52;78.22
69006;SHT31;56061;51.748;19.620;2022-08-19T00:14:22;19.48;78.24
69006;SHT31;56061;51.748;19.620;2022-08-19T00:16:51;19.44;78.36
69006;SHT31;56061;51.748;19.620;2022-08-19T00:19:20;19.40;78.79
69006;SHT31;56061;51.748;19.620;2022-08-19T00:21:49;19.38;79.16
69006;SHT31;56061;51.748;19.620;2022-08-19T00:24:16;19.36;79.36
69006;SHT31;56061;51.748;19.620;2022-08-19T00:26:43;19.38;79.63
69006;SHT31;56061;51.748;19.620;2022-08-19T00:29:12;19.40;79.92
69006;SHT31;56061;51.748;19.620;2022-08-19T00:31:44;19.45;80.27
69006;SHT31;56061;51.748;19.620;2022-08-19T00:34:13;19.50;80.24
69006;SHT31;56061;51.748;19.620;2022-08-19T00:36:41;19.54;80.17
69006;SHT31;56061;51.748;19.620;2022-08-19T00:39:10;19.55;80.29
69006;SHT31;56061;51.748;19.620;2022-08-19T00:41:39;19.58;80.18
69006;SHT31;56061;51.748;19.620;2022-08-19T00:44:10;19.59;80.28
69006;SHT31;56061;51.748;19.620;2022-08-19T00:46:40;19.60;80.36
69006;SHT31;56061;51.748;19.620;2022-08-19T00:49:30;19.64;80.23
69006;SHT31;56061;51.748;19.620;2022-08-19T00:52:04;19.63;80.24
69006;SHT31;56061;51.748;19.620;2022-08-19T00:54:48;19.64;80.60
69006;SHT31;56061;51.748;19.620;2022-08-19T00:57:18;19.66;80.84
69006;SHT31;56061;51.748;19.620;2022-08-19T00:59:54;19.69;80.81
69006;SHT31;56061;51.748;19.620;2022-08-19T01:02:28;19.74;80.84
69006;SHT31;56061;51.748;19.620;2022-08-19T01:04:57;19.78;80.78
69006;SHT31;56061;51.748;19.620;2022-08-19T01:07:28;19.85;80.62
69006;SHT31;56061;51.748;19.620;2022-08-19T01:10:03;19.92;80.57
69006;SHT31;56061;51.748;19.620;2022-08-19T01:12:34;19.98;80.23
69006;SHT31;56061;51.748;19.620;2022-08-19T01:15:03;20.00;79.95
69006;SHT31;56061;51.748;19.620;2022-08-19T01:17:33;20.01;80.04
69006;SHT31;56061;51.748;19.620;2022-08-19T01:20:03;20.02;79.85
69006;SHT31;56061;51.748;19.620;2022-08-19T01:22:31;20.02;79.37
69006;SHT31;56061;51.748;19.620;2022-08-19T01:25:06;19.98;79.42
69006;SHT31;56061;51.748;19.620;2022-08-19T01:27:41;19.94;79.90
69006;SHT31;56061;51.748;19.620;2022-08-19T01:30:15;19.92;80.01
69006;SHT31;56061;51.748;19.620;2022-08-19T01:32:51;19.91;80.16
69006;SHT31;56061;51.748;19.620;2022-08-19T01:35:19;19.90;80.15
69006;SHT31;56061;51.748;19.620;2022-08-19T01:40:23;19.88;79.82
69006;SHT31;56061;51.748;19.620;2022-08-19T01:42:55;19.87;79.99
69006;SHT31;56061;51.748;19.620;2022-08-19T01:45:22;19.83;79.97
69006;SHT31;56061;51.748;19.620;2022-08-19T01:47:52;19.78;79.61
69006;SHT31;56061;51.748;19.620;2022-08-19T01:50:28;19.71;79.17
69006;SHT31;56061;51.748;19.620;2022-08-19T01:52:56;19.62;78.97
69006;SHT31;56061;51.748;19.620;2022-08-19T01:55:33;19.53;78.97
69006;SHT31;56061;51.748;19.620;2022-08-19T01:58:07;19.46;79.17
69006;SHT31;56061;51.748;19.620;2022-08-19T02:00:40;19.39;79.70
69006;SHT31;56061;51.748;19.620;2022-08-19T02:03:08;19.38;80.01
69006;SHT31;56061;51.748;19.620;2022-08-19T02:05:36;19.38;80.41
69006;SHT31;56061;51.748;19.620;2022-08-19T02:08:04;19.38;80.77
69006;SHT31;56061;51.748;19.620;2022-08-19T02:13:19;19.44;81.13
69006;SHT31;56061;51.748;19.620;2022-08-19T02:15:51;19.48;81.42
69006;SHT31;56061;51.748;19.620;2022-08-19T02:18:18;19.55;81.38
69006;SHT31;56061;51.748;19.620;2022-08-19T02:20:45;19.57;81.22
69006;SHT31;56061;51.748;19.620;2022-08-19T02:23:15;19.59;81.20
69006;SHT31;56061;51.748;19.620;2022-08-19T02:25:44;19.63;81.37
69006;SHT31;56061;51.748;19.620;2022-08-19T02:28:14;19.68;81.45
69006;SHT31;56061;51.748;19.620;2022-08-19T02:30:44;19.77;81.59
69006;SHT31;56061;51.748;19.620;2022-08-19T02:33:13;19.89;81.52
69006;SHT31;56061;51.748;19.620;2022-08-19T02:35:46;19.98;81.54
69006;SHT31;56061;51.748;19.620;2022-08-19T02:38:13;20.08;81.33
69006;SHT31;56061;51.748;19.620;2022-08-19T02:40:53;20.15;81.18
69006;SHT31;56061;51.748;19.620;2022-08-19T02:43:25;20.22;81.04
69006;SHT31;56061;51.748;19.620;2022-08-19T02:45:58;20.27;81.02
69006;SHT31;56061;51.748;19.620;2022-08-19T02:48:26;20.31;80.90
69006;SHT31;56061;51.748;19.620;2022-08-19T02:50:53;20.35;80.88
69006;SHT31;56061;51.748;19.620;2022-08-19T02:53:23;20.40;80.78
69006;SHT31;56061;51.748;19.620;2022-08-19T02:55:53;20.45;80.67
69006;SHT31;56061;51.748;19.620;2022-08-19T02:58:20;20.51;80.58
69006;SHT31;56061;51.748;19.620;2022-08-19T03:00:51;20.56;80.50
69006;SHT31;56061;51.748;19.620;2022-08-19T03:03:21;20.58;80.46
69006;SHT31;56061;51.748;19.620;2022-08-19T03:05:48;20.60;80.38
69006;SHT31;56061;51.748;19.620;2022-08-19T03:08:22;20.59;80.37
69006;SHT31;56061;51.748;19.620;2022-08-19T03:10:50;20.58;80.40
69006;SHT31;56061;51.748;19.620;2022-08-19T03:13:18;20.57;80.38
69006;SHT31;56061;51.748;19.620;2022-08-19T03:15:47;20.58;80.34
69006;SHT31;56061;51.748;19.620;2022-08-19T03:18:15;20.57;80.41
69006;SHT31;56061;51.748;19.620;2022-08-19T03:20:47;20.57;80.47
69006;SHT31;56061;51.748;19.620;2022-08-19T03:23:18;20.59;80.41
69006;SHT31;56061;51.748;19.620;2022-08-19T03:25:46;20.62;80.37
69006;SHT31;56061;51.748;19.620;2022-08-19T03:28:35;20.68;80.27
69006;SHT31;56061;51.748;19.620;2022-08-19T03:31:05;20.73;80.24
69006;SHT31;56061;51.748;19.620;2022-08-19T03:33:56;20.77;80.09
69006;SHT31;56061;51.748;19.620;2022-08-19T03:36:24;20.80;80.01
69006;SHT31;56061;51.748;19.620;2022-08-19T03:38:55;20.82;79.95
69006;SHT31;56061;51.748;19.620;2022-08-19T03:41:47;20.83;79.89
69006;SHT31;56061;51.748;19.620;2022-08-19T03:44:36;20.87;79.88
69006;SHT31;56061;51.748;19.620;2022-08-19T03:47:04;20.89;79.88
69006;SHT31;56061;51.748;19.620;2022-08-19T03:49:31;20.90;79.87
69006;SHT31;56061;51.748;19.620;2022-08-19T03:52:02;20.92;79.85
69006;SHT31;56061;51.748;19.620;2022-08-19T03:54:33;20.95;79.79
69006;SHT31;56061;51.748;19.620;2022-08-19T03:57:01;20.98;79.73
69006;SHT31;56061;51.748;19.620;2022-08-19T03:59:30;21.01;79.63
69006;SHT31;56061;51.748;19.620;2022-08-19T04:02:00;21.04;79.59
69006;SHT31;56061;51.748;19.620;2022-08-19T04:04:31;21.08;79.49
69006;SHT31;56061;51.748;19.620;2022-08-19T04:06:57;21.14;79.38
69006;SHT31;56061;51.748;19.620;2022-08-19T04:09:24;21.19;79.29
69006;SHT31;56061;51.748;19.620;2022-08-19T04:11:52;21.28;79.19
69006;SHT31;56061;51.748;19.620;2022-08-19T04:14:23;21.33;79.03
69006;SHT31;56061;51.748;19.620;2022-08-19T04:16:56;21.41;78.97
69006;SHT31;56061;51.748;19.620;2022-08-19T04:19:25;21.47;78.93
69006;SHT31;56061;51.748;19.620;2022-08-19T04:21:55;21.49;78.86
69006;SHT31;56061;51.748;19.620;2022-08-19T04:24:22;21.52;78.78
69006;SHT31;56061;51.748;19.620;2022-08-19T04:26:49;21.57;78.77
69006;SHT31;56061;51.748;19.620;2022-08-19T04:29:18;21.61;78.58
69006;SHT31;56061;51.748;19.620;2022-08-19T04:31:51;21.68;78.43
69006;SHT31;56061;51.748;19.620;2022-08-19T04:34:21;21.74;78.31
69006;SHT31;56061;51.748;19.620;2022-08-19T04:36:51;21.81;78.08
69006;SHT31;56061;51.748;19.620;2022-08-19T04:39:21;21.88;77.87
69006;SHT31;56061;51.748;19.620;2022-08-19T04:42:16;21.95;77.66
69006;SHT31;56061;51.748;19.620;2022-08-19T04:45:04;22.02;77.39
69006;SHT31;56061;51.748;19.620;2022-08-19T04:47:38;22.08;77.25
69006;SHT31;56061;51.748;19.620;2022-08-19T04:50:24;22.15;77.10
69006;SHT31;56061;51.748;19.620;2022-08-19T04:52:52;22.22;77.06
69006;SHT31;56061;51.748;19.620;2022-08-19T04:55:21;22.28;76.93
69006;SHT31;56061;51.748;19.620;2022-08-19T04:57:48;22.34;76.57
69006;SHT31;56061;51.748;19.620;2022-08-19T05:00:14;22.38;76.45
69006;SHT31;56061;51.748;19.620;2022-08-19T05:02:41;22.41;76.19
69006;SHT31;56061;51.748;19.620;2022-08-19T05:05:08;22.44;76.07
69006;SHT31;56061;51.748;19.620;2022-08-19T05:07:35;22.51;76.12
69006;SHT31;56061;51.748;19.620;2022-08-19T05:10:04;22.54;75.98
69006;SHT31;56061;51.748;19.620;2022-08-19T05:12:32;22.60;75.82
69006;SHT31;56061;51.748;19.620;2022-08-19T05:14:59;22.68;75.60
69006;SHT31;56061;51.748;19.620;2022-08-19T05:17:26;22.72;75.64
69006;SHT31;56061;51.748;19.620;2022-08-19T05:19:59;22.77;75.42
69006;SHT31;56061;51.748;19.620;2022-08-19T05:22:46;22.82;75.29
69006;SHT31;56061;51.748;19.620;2022-08-19T05:25:15;22.85;75.00
69006;SHT31;56061;51.748;19.620;2022-08-19T05:27:46;22.93;74.90
69006;SHT31;56061;51.748;19.620;2022-08-19T05:30:14;22.99;74.79
69006;SHT31;56061;51.748;19.620;2022-08-19T05:32:42;23.06;74.61
69006;SHT31;56061;51.748;19.620;2022-08-19T05:35:09;23.12;74.52
69006;SHT31;56061;51.748;19.620;2022-08-19T05:37:37;23.19;74.28
69006;SHT31;56061;51.748;19.620;2022-08-19T05:40:07;23.26;74.09
69006;SHT31;56061;51.748;19.620;2022-08-19T05:42:35;23.31;73.87
69006;SHT31;56061;51.748;19.620;2022-08-19T05:45:03;23.35;73.60
69006;SHT31;56061;51.748;19.620;2022-08-19T05:47:30;23.43;73.63
69006;SHT31;56061;51.748;19.620;2022-08-19T05:49:58;23.50;73.46
69006;SHT31;56061;51.748;19.620;2022-08-19T05:52:24;23.59;73.42
69006;SHT31;56061;51.748;19.620;2022-08-19T05:54:55;23.68;73.22
69006;SHT31;56061;51.748;19.620;2022-08-19T05:57:22;23.74;72.77
69006;SHT31;56061;51.748;19.620;2022-08-19T05:59:50;23.80;72.69
69006;SHT31;56061;51.748;19.620;2022-08-19T06:02:24;23.86;72.63
69006;SHT31;56061;51.748;19.620;2022-08-19T06:04:52;23.92;72.71
69006;SHT31;56061;51.748;19.620;2022-08-19T06:07:19;23.96;72.37
69006;SHT31;56061;51.748;19.620;2022-08-19T06:09:46;24.02;72.19
69006;SHT31;56061;51.748;19.620;2022-08-19T06:12:26;24.11;72.27
69006;SHT31;56061;51.748;19.620;2022-08-19T06:15:07;24.18;72.12
69006;SHT31;56061;51.748;19.620;2022-08-19T06:17:37;24.25;71.68
69006;SHT31;56061;51.748;19.620;2022-08-19T06:20:08;24.31;71.38
69006;SHT31;56061;51.748;19.620;2022-08-19T06:22:40;24.36;71.22
69006;SHT31;56061;51.748;19.620;2022-08-19T06:25:10;24.41;71.04
69006;SHT31;56061;51.748;19.620;2022-08-19T06:27:40;24.47;71.13
69006;SHT31;56061;51.748;19.620;2022-08-19T06:30:27;24.56;70.90
69006;SHT31;56061;51.748;19.620;2022-08-19T06:32:54;24.62;70.96
69006;SHT31;56061;51.748;19.620;2022-08-19T06:35:21;24.70;70.85
69006;SHT31;56061;51.748;19.620;2022-08-19T06:37:47;24.80;70.68
69006;SHT31;56061;51.748;19.620;2022-08-19T06:40:14;24.90;70.59
69006;SHT31;56061;51.748;19.620;2022-08-19T06:42:41;24.99;70.09
69006;SHT31;56061;51.748;19.620;2022-08-19T06:45:19;25.09;70.06
69006;SHT31;56061;51.748;19.620;2022-08-19T06:47:50;25.16;70.08
69006;SHT31;56061;51.748;19.620;2022-08-19T06:50:24;25.26;69.59
69006;SHT31;56061;51.748;19.620;2022-08-19T06:52:51;25.36;69.64
69006;SHT31;56061;51.748;19.620;2022-08-19T06:55:19;25.47;69.35
69006;SHT31;56061;51.748;19.620;2022-08-19T06:57:45;25.57;69.09
69006;SHT31;56061;51.748;19.620;2022-08-19T07:00:12;25.65;69.33
69006;SHT31;56061;51.748;19.620;2022-08-19T07:02:40;25.76;68.94
69006;SHT31;56061;51.748;19.620;2022-08-19T07:05:22;25.88;68.68
69006;SHT31;56061;51.748;19.620;2022-08-19T07:07:49;25.99;68.14
69006;SHT31;56061;51.748;19.620;2022-08-19T07:10:16;26.06;68.06
69006;SHT31;56061;51.748;19.620;2022-08-19T07:12:43;26.15;67.82
69006;SHT31;56061;51.748;19.620;2022-08-19T07:15:10;26.23;67.11
69006;SHT31;56061;51.748;19.620;2022-08-19T07:17:38;26.29;66.89
69006;SHT31;56061;51.748;19.620;2022-08-19T07:20:07;26.34;66.56
69006;SHT31;56061;51.748;19.620;2022-08-19T07:22:38;26.38;66.42
69006;SHT31;56061;51.748;19.620;2022-08-19T07:25:06;26.41;66.36
69006;SHT31;56061;51.748;19.620;2022-08-19T07:27:35;26.41;66.47
69006;SHT31;56061;51.748;19.620;2022-08-19T07:30:05;26.43;66.59
69006;SHT31;56061;51.748;19.620;2022-08-19T07:32:37;26.45;66.54
69006;SHT31;56061;51.748;19.620;2022-08-19T07:35:04;26.48;66.39
69006;SHT31;56061;51.748;19.620;2022-08-19T07:37:32;26.52;66.42
69006;SHT31;56061;51.748;19.620;2022-08-19T07:39:59;26.56;66.39
69006;SHT31;56061;51.748;19.620;2022-08-19T07:42:27;26.61;66.07
69006;SHT31;56061;51.748;19.620;2022-08-19T07:44:56;26.65;66.00
69006;SHT31;56061;51.748;19.620;2022-08-19T07:47:22;26.72;66.17
69006;SHT31;56061;51.748;19.620;2022-08-19T07:50:10;26.79;66.20
69006;SHT31;56061;51.748;19.620;2022-08-19T07:52:37;26.87;66.15
69006;SHT31;56061;51.748;19.620;2022-08-19T07:55:07;26.95;66.30
69006;SHT31;56061;51.748;19.620;2022-08-19T07:57:56;27.03;65.95
69006;SHT31;56061;51.748;19.620;2022-08-19T08:00:23;27.10;65.75
69006;SHT31;56061;51.748;19.620;2022-08-19T08:02:50;27.15;65.50
69006;SHT31;56061;51.748;19.620;2022-08-19T08:05:21;27.19;65.55
69006;SHT31;56061;51.748;19.620;2022-08-19T08:08:09;27.26;65.15
69006;SHT31;56061;51.748;19.620;2022-08-19T08:10:57;27.35;65.96
69006;SHT31;56061;51.748;19.620;2022-08-19T08:13:24;27.43;65.77
69006;SHT31;56061;51.748;19.620;2022-08-19T08:15:53;27.49;65.23
69006;SHT31;56061;51.748;19.620;2022-08-19T08:18:21;27.52;65.25
69006;SHT31;56061;51.748;19.620;2022-08-19T08:20:52;27.55;65.15
69006;SHT31;56061;51.748;19.620;2022-08-19T08:23:20;27.58;64.90
69006;SHT31;56061;51.748;19.620;2022-08-19T08:25:52;27.62;64.68
69006;SHT31;56061;51.748;19.620;2022-08-19T08:28:21;27.66;64.63
69006;SHT31;56061;51.748;19.620;2022-08-19T08:30:49;27.73;64.74
69006;SHT31;56061;51.748;19.620;2022-08-19T08:33:20;27.81;65.09
69006;SHT31;56061;51.748;19.620;2022-08-19T08:35:59;27.90;64.55
69006;SHT31;56061;51.748;19.620;2022-08-19T08:38:32;27.96;64.35
69006;SHT31;56061;51.748;19.620;2022-08-19T08:41:51;28.05;64.29
69006;SHT31;56061;51.748;19.620;2022-08-19T08:44:13;28.16;64.01
69006;SHT31;56061;51.748;19.620;2022-08-19T08:46:48;28.25;63.71
69006;SHT31;56061;51.748;19.620;2022-08-19T08:51:58;28.43;63.24
69006;SHT31;56061;51.748;19.620;2022-08-19T08:54:34;28.52;63.18
69006;SHT31;56061;51.748;19.620;2022-08-19T09:00:20;28.63;62.21
69006;SHT31;56061;51.748;19.620;2022-08-19T09:02:53;28.66;62.14
69006;SHT31;56061;51.748;19.620;2022-08-19T09:05:21;28.72;62.17
69006;SHT31;56061;51.748;19.620;2022-08-19T09:08:13;28.80;62.36
69006;SHT31;56061;51.748;19.620;2022-08-19T09:11:04;28.88;62.00
69006;SHT31;56061;51.748;19.620;2022-08-19T09:16:21;29.10;61.89
69006;SHT31;56061;51.748;19.620;2022-08-19T09:18:58;29.18;61.58
69006;SHT31;56061;51.748;19.620;2022-08-19T09:21:31;29.25;61.27
69006;SHT31;56061;51.748;19.620;2022-08-19T09:23:59;29.32;61.16
69006;SHT31;56061;51.748;19.620;2022-08-19T09:26:28;29.38;60.88
69006;SHT31;56061;51.748;19.620;2022-08-19T09:29:18;29.44;60.24
69006;SHT31;56061;51.748;19.620;2022-08-19T09:31:47;29.50;60.37
69006;SHT31;56061;51.748;19.620;2022-08-19T09:34:15;29.57;60.56
69006;SHT31;56061;51.748;19.620;2022-08-19T09:36:47;29.65;60.62
69006;SHT31;56061;51.748;19.620;2022-08-19T09:39:19;29.72;60.30
69006;SHT31;56061;51.748;19.620;2022-08-19T09:41:46;29.76;59.98
69006;SHT31;56061;51.748;19.620;2022-08-19T09:44:14;29.80;59.91
69006;SHT31;56061;51.748;19.620;2022-08-19T09:46:43;29.87;59.81
69006;SHT31;56061;51.748;19.620;2022-08-19T09:49:09;29.92;59.59
69006;SHT31;56061;51.748;19.620;2022-08-19T09:51:38;29.96;59.62
69006;SHT31;56061;51.748;19.620;2022-08-19T09:54:06;30.00;59.30
69006;SHT31;56061;51.748;19.620;2022-08-19T09:56:36;30.02;58.87
69006;SHT31;56061;51.748;19.620;2022-08-19T09:59:03;30.03;58.74
69006;SHT31;56061;51.748;19.620;2022-08-19T10:01:30;30.07;59.09
69006;SHT31;56061;51.748;19.620;2022-08-19T10:03:59;30.12;59.36
69006;SHT31;56061;51.748;19.620;2022-08-19T10:06:39;30.21;58.87
69006;SHT31;56061;51.748;19.620;2022-08-19T10:09:12;30.30;58.64
69006;SHT31;56061;51.748;19.620;2022-08-19T10:11:41;30.42;59.28
69006;SHT31;56061;51.748;19.620;2022-08-19T10:14:20;30.53;59.22
69006;SHT31;56061;51.748;19.620;2022-08-19T10:16:49;30.61;59.08
69006;SHT31;56061;51.748;19.620;2022-08-19T10:19:18;30.69;58.87
69006;SHT31;56061;51.748;19.620;2022-08-19T10:21:51;30.78;58.42
69006;SHT31;56061;51.748;19.620;2022-08-19T10:24:21;30.86;58.46
69006;SHT31;56061;51.748;19.620;2022-08-19T10:26:50;30.92;58.10
69006;SHT31;56061;51.748;19.620;2022-08-19T10:29:22;30.96;56.62
69006;SHT31;56061;51.748;19.620;2022-08-19T10:31:58;31.00;57.57
69006;SHT31;56061;51.748;19.620;2022-08-19T10:34:28;31.07;57.53
69006;SHT31;56061;51.748;19.620;2022-08-19T10:36:57;31.16;57.41
69006;SHT31;56061;51.748;19.620;2022-08-19T10:39:27;31.21;56.39
69006;SHT31;56061;51.748;19.620;2022-08-19T10:41:56;31.25;56.66
69006;SHT31;56061;51.748;19.620;2022-08-19T10:44:23;31.31;56.27
69006;SHT31;56061;51.748;19.620;2022-08-19T10:46:58;31.38;55.97
69006;SHT31;56061;51.748;19.620;2022-08-19T10:49:25;31.45;56.01
69006;SHT31;56061;51.748;19.620;2022-08-19T10:51:55;31.51;56.10
69006;SHT31;56061;51.748;19.620;2022-08-19T10:54:46;31.58;55.67
69006;SHT31;56061;51.748;19.620;2022-08-19T10:57:34;31.66;55.74
69006;SHT31;56061;51.748;19.620;2022-08-19T11:00:21;31.75;55.22
69006;SHT31;56061;51.748;19.620;2022-08-19T11:02:49;31.84;55.90
69006;SHT31;56061;51.748;19.620;2022-08-19T11:05:16;31.93;55.16
69006;SHT31;56061;51.748;19.620;2022-08-19T11:07:44;32.00;54.43
69006;SHT31;56061;51.748;19.620;2022-08-19T11:10:13;32.06;54.01
69006;SHT31;56061;51.748;19.620;2022-08-19T11:12:46;32.07;53.28
69006;SHT31;56061;51.748;19.620;2022-08-19T11:15:13;32.08;54.07
69006;SHT31;56061;51.748;19.620;2022-08-19T11:17:40;32.13;54.04
69006;SHT31;56061;51.748;19.620;2022-08-19T11:20:10;32.21;53.49
69006;SHT31;56061;51.748;19.620;2022-08-19T11:22:39;32.29;53.76
69006;SHT31;56061;51.748;19.620;2022-08-19T11:25:08;32.36;53.31
69006;SHT31;56061;51.748;19.620;2022-08-19T11:27:40;32.41;53.08
69006;SHT31;56061;51.748;19.620;2022-08-19T11:30:09;32.44;52.72
69006;SHT31;56061;51.748;19.620;2022-08-19T11:32:42;32.49;52.91
69006;SHT31;56061;51.748;19.620;2022-08-19T11:35:14;32.56;52.32
69006;SHT31;56061;51.748;19.620;2022-08-19T11:37:42;32.61;52.48
69006;SHT31;56061;51.748;19.620;2022-08-19T11:40:09;32.69;53.30
69006;SHT31;56061;51.748;19.620;2022-08-19T11:42:36;32.75;52.25
69006;SHT31;56061;51.748;19.620;2022-08-19T11:45:26;32.80;51.38
69006;SHT31;56061;51.748;19.620;2022-08-19T11:47:55;32.84;51.27
69006;SHT31;56061;51.748;19.620;2022-08-19T11:50:22;32.90;51.56
69006;SHT31;56061;51.748;19.620;2022-08-19T11:52:52;32.93;51.25
69006;SHT31;56061;51.748;19.620;2022-08-19T11:55:22;33.00;51.79
69006;SHT31;56061;51.748;19.620;2022-08-19T11:57:49;33.08;51.39
69006;SHT31;56061;51.748;19.620;2022-08-19T12:00:16;33.14;51.36
69006;SHT31;56061;51.748;19.620;2022-08-19T12:02:42;33.20;51.17
69006;SHT31;56061;51.748;19.620;2022-08-19T12:05:09;33.24;51.12
69006;SHT31;56061;51.748;19.620;2022-08-19T12:07:38;33.30;50.81
69006;SHT31;56061;51.748;19.620;2022-08-19T12:10:07;33.35;50.58
69006;SHT31;56061;51.748;19.620;2022-08-19T12:12:35;33.39;49.93
69006;SHT31;56061;51.748;19.620;2022-08-19T12:15:09;33.41;50.41
69006;SHT31;56061;51.748;19.620;2022-08-19T12:17:37;33.45;50.08
69006;SHT31;56061;51.748;19.620;2022-08-19T12:20:04;33.50;49.87
69006;SHT31;56061;51.748;19.620;2022-08-19T12:22:33;33.56;49.74
69006;SHT31;56061;51.748;19.620;2022-08-19T12:25:01;33.64;49.03
69006;SHT31;56061;51.748;19.620;2022-08-19T12:27:27;33.69;48.84
69006;SHT31;56061;51.748;19.620;2022-08-19T12:30:06;33.70;48.32
69006;SHT31;56061;51.748;19.620;2022-08-19T12:32:36;33.71;49.11
69006;SHT31;56061;51.748;19.620;2022-08-19T12:35:03;33.75;49.32
69006;SHT31;56061;51.748;19.620;2022-08-19T12:37:32;33.81;49.26
69006;SHT31;56061;51.748;19.620;2022-08-19T12:39:58;33.88;49.15
69006;SHT31;56061;51.748;19.620;2022-08-19T12:42:26;33.95;48.86
69006;SHT31;56061;51.748;19.620;2022-08-19T12:44:53;33.99;48.50
69006;SHT31;56061;51.748;19.620;2022-08-19T12:47:19;34.04;48.52
69006;SHT31;56061;51.748;19.620;2022-08-19T12:49:47;34.08;48.01
69006;SHT31;56061;51.748;19.620;2022-08-19T12:52:19;34.08;47.87
69006;SHT31;56061;51.748;19.620;2022-08-19T12:54:48;34.10;47.79
69006;SHT31;56061;51.748;19.620;2022-08-19T12:57:19;34.13;48.28
69006;SHT31;56061;51.748;19.620;2022-08-19T12:59:58;34.17;48.22
69006;SHT31;56061;51.748;19.620;2022-08-19T13:02:38;34.20;47.99
69006;SHT31;56061;51.748;19.620;2022-08-19T13:05:11;34.22;47.71
69006;SHT31;56061;51.748;19.620;2022-08-19T13:07:42;34.27;47.59
69006;SHT31;56061;51.748;19.620;2022-08-19T13:10:10;34.36;48.31
69006;SHT31;56061;51.748;19.620;2022-08-19T13:12:42;34.45;47.48
69006;SHT31;56061;51.748;19.620;2022-08-19T13:15:11;34.50;47.23
69006;SHT31;56061;51.748;19.620;2022-08-19T13:17:40;34.54;46.82
69006;SHT31;56061;51.748;19.620;2022-08-19T13:20:08;34.55;47.12
69006;SHT31;56061;51.748;19.620;2022-08-19T13:22:36;34.58;47.01
69006;SHT31;56061;51.748;19.620;2022-08-19T13:25:04;34.60;47.46
69006;SHT31;56061;51.748;19.620;2022-08-19T13:27:32;34.65;46.74
69006;SHT31;56061;51.748;19.620;2022-08-19T13:29:59;34.63;47.08
69006;SHT31;56061;51.748;19.620;2022-08-19T13:32:45;34.59;46.67
69006;SHT31;56061;51.748;19.620;2022-08-19T13:35:31;34.56;45.82
69006;SHT31;56061;51.748;19.620;2022-08-19T13:37:57;34.51;45.93
69006;SHT31;56061;51.748;19.620;2022-08-19T13:40:24;34.42;45.73
69006;SHT31;56061;51.748;19.620;2022-08-19T13:42:54;34.32;45.89
69006;SHT31;56061;51.748;19.620;2022-08-19T13:45:22;34.31;46.24
69006;SHT31;56061;51.748;19.620;2022-08-19T13:47:51;34.40;46.68
69006;SHT31;56061;51.748;19.620;2022-08-19T13:50:29;34.53;46.33
69006;SHT31;56061;51.748;19.620;2022-08-19T13:52:59;34.63;46.52
69006;SHT31;56061;51.748;19.620;2022-08-19T13:55:28;34.76;46.45
69006;SHT31;56061;51.748;19.620;2022-08-19T13:57:55;34.81;45.87
69006;SHT31;56061;51.748;19.620;2022-08-19T14:00:26;34.84;45.56
69006;SHT31;56061;51.748;19.620;2022-08-19T14:02:56;34.84;45.44
69006;SHT31;56061;51.748;19.620;2022-08-19T14:05:24;34.73;45.70
69006;SHT31;56061;51.748;19.620;2022-08-19T14:07:54;34.67;47.05
69006;SHT31;56061;51.748;19.620;2022-08-19T14:10:22;34.69;46.99
69006;SHT31;56061;51.748;19.620;2022-08-19T14:12:59;34.78;46.93
69006;SHT31;56061;51.748;19.620;2022-08-19T14:15:28;34.86;46.70
69006;SHT31;56061;51.748;19.620;2022-08-19T14:17:55;34.96;45.99
69006;SHT31;56061;51.748;19.620;2022-08-19T14:20:23;35.03;45.32
69006;SHT31;56061;51.748;19.620;2022-08-19T14:22:51;35.08;45.30
69006;SHT31;56061;51.748;19.620;2022-08-19T14:25:21;35.08;44.52
69006;SHT31;56061;51.748;19.620;2022-08-19T14:27:53;35.10;44.75
69006;SHT31;56061;51.748;19.620;2022-08-19T14:30:30;35.16;44.61
69006;SHT31;56061;51.748;19.620;2022-08-19T14:33:00;35.22;44.38
69006;SHT31;56061;51.748;19.620;2022-08-19T14:35:29;35.28;44.82
69006;SHT31;56061;51.748;19.620;2022-08-19T14:38:01;35.35;44.75
69006;SHT31;56061;51.748;19.620;2022-08-19T14:40:30;35.36;43.74
69006;SHT31;56061;51.748;19.620;2022-08-19T14:42:59;35.40;44.36
69006;SHT31;56061;51.748;19.620;2022-08-19T14:45:31;35.45;44.07
69006;SHT31;56061;51.748;19.620;2022-08-19T14:48:03;35.50;43.82
69006;SHT31;56061;51.748;19.620;2022-08-19T14:50:31;35.55;44.25
69006;SHT31;56061;51.748;19.620;2022-08-19T14:53:01;35.62;44.02
69006;SHT31;56061;51.748;19.620;2022-08-19T14:55:40;35.65;44.46
69006;SHT31;56061;51.748;19.620;2022-08-19T14:58:09;35.73;44.29
69006;SHT31;56061;51.748;19.620;2022-08-19T15:00:55;35.78;43.97
69006;SHT31;56061;51.748;19.620;2022-08-19T15:03:22;35.81;43.89
69006;SHT31;56061;51.748;19.620;2022-08-19T15:05:49;35.84;43.36
69006;SHT31;56061;51.748;19.620;2022-08-19T15:08:15;35.78;42.92
69006;SHT31;56061;51.748;19.620;2022-08-19T15:10:42;35.76;43.21
69006;SHT31;56061;51.748;19.620;2022-08-19T15:13:08;35.77;43.19
69006;SHT31;56061;51.748;19.620;2022-08-19T15:15:35;35.79;43.83
69006;SHT31;56061;51.748;19.620;2022-08-19T15:18:02;35.79;43.69
69006;SHT31;56061;51.748;19.620;2022-08-19T15:20:29;35.77;43.79
69006;SHT31;56061;51.748;19.620;2022-08-19T15:22:57;35.79;43.80
69006;SHT31;56061;51.748;19.620;2022-08-19T15:25:25;35.72;43.17
69006;SHT31;56061;51.748;19.620;2022-08-19T15:27:53;35.64;43.22
69006;SHT31;56061;51.748;19.620;2022-08-19T15:30:22;35.60;42.78
69006;SHT31;56061;51.748;19.620;2022-08-19T15:32:53;35.54;43.10
69006;SHT31;56061;51.748;19.620;2022-08-19T15:35:23;35.51;43.41
69006;SHT31;56061;51.748;19.620;2022-08-19T15:37:52;35.47;43.54
69006;SHT31;56061;51.748;19.620;2022-08-19T15:40:20;35.43;43.78
69006;SHT31;56061;51.748;19.620;2022-08-19T15:42:50;35.35;44.08
69006;SHT31;56061;51.748;19.620;2022-08-19T15:45:19;35.28;44.45
69006;SHT31;56061;51.748;19.620;2022-08-19T15:47:47;35.18;44.23
69006;SHT31;56061;51.748;19.620;2022-08-19T15:50:16;35.05;44.60
69006;SHT31;56061;51.748;19.620;2022-08-19T15:52:50;34.96;44.33